Time;durP1;ratioP1;P1;durP2;ratioP2;P2;SDS_P1;SDS_P2;PMS_P1;PMS_P2;Temp;Humidity;BMP_temperature;BMP_pressure;BME280_temperature;BME280_humidity;BME280_pressure;Samples;Min_cycle;Max_cycle;Signal;HPM_P1;HPM_P2
2023/01/15 00:01:55;;;;;;;7.97;1.35;;;6.10;99.90;;;;;;6275918;22;20055;-90
2023/01/15 00:04:20;;;;;;;7.88;1.65;;;6.80;99.90;;;;;;6276027;22;20026;-87
2023/01/15 00:06:46;;;;;;;10.88;2.08;;;7.20;99.90;;;;;;6275883;22;20015;-89
2023/01/15 00:09:14;;;;;;;14.57;2.05;;;7.10;99.90;;;;;;6276005;22;20102;-91
2023/01/15 00:11:40;;;;;;;8.85;1.40;;;6.10;99.90;;;;;;6250125;22;20356;-87
2023/01/15 00:14:06;;;;;;;14.50;1.63;;;6.10;99.90;;;;;;6250244;22;20019;-89
2023/01/15 00:16:32;;;;;;;12.30;1.42;;;7.10;99.90;;;;;;6301747;22;20073;-88
2023/01/15 00:19:03;;;;;;;7.88;1.50;;;7.40;99.90;;;;;;6276648;22;20015;-89
2023/01/15 00:21:29;;;;;;;10.52;1.65;;;5.80;99.90;;;;;;6275953;22;20147;-90
2023/01/15 00:29:43;;;;;;;8.77;1.35;;;6.10;99.90;;;;;;6240628;23;20032;-87
2023/01/15 00:32:22;;;;;;;13.40;1.65;;;7.30;99.90;;;;;;6240325;22;20016;-91
2023/01/15 00:34:50;;;;;;;8.15;1.23;;;7.00;99.90;;;;;;6240164;23;20023;-87
2023/01/15 00:37:16;;;;;;;16.15;1.80;;;6.70;99.90;;;;;;6240122;22;20020;-87
2023/01/15 00:39:41;;;;;;;11.18;1.83;;;7.30;99.90;;;;;;6214834;23;20024;-86
2023/01/15 00:42:14;;;;;;;10.68;1.73;;;7.10;99.90;;;;;;6215313;23;20020;-90
2023/01/15 00:44:46;;;;;;;9.85;1.30;;;6.20;99.90;;;;;;6189931;23;20386;-91
2023/01/15 00:47:22;;;;;;;13.60;1.38;;;7.30;99.90;;;;;;6189384;23;20449;-89
2023/01/15 00:49:53;;;;;;;15.93;1.60;;;6.30;99.90;;;;;;6215500;23;20059;-92
2023/01/15 00:52:19;;;;;;;12.77;2.67;;;7.30;99.90;;;;;;6189726;23;20020;-87
2023/01/15 00:54:47;;;;;;;15.10;1.33;;;7.20;99.90;;;;;;6215055;23;20364;-91
2023/01/15 00:57:12;;;;;;;15.90;1.67;;;6.10;99.90;;;;;;6207297;22;20502;-90
2023/01/15 00:59:40;;;;;;;11.80;1.67;;;5.60;99.90;;;;;;6306357;22;20019;-93
2023/01/15 01:02:11;;;;;;;11.93;1.60;;;6.10;99.90;;;;;;6304271;22;20470;-90
2023/01/15 01:04:40;;;;;;;19.45;2.17;;;7.20;99.90;;;;;;6276956;22;20019;-91
2023/01/15 01:07:08;;;;;;;16.40;1.85;;;7.10;99.90;;;;;;6304909;22;20065;-89
2023/01/15 01:09:42;;;;;;;10.48;2.20;;;7.00;99.90;;;;;;6252274;22;20038;-90
2023/01/15 01:12:11;;;;;;;11.23;1.77;;;6.10;99.90;;;;;;6277865;22;20015;-92
2023/01/15 01:14:40;;;;;;;12.13;2.05;;;7.10;99.90;;;;;;6252567;22;20023;-89
2023/01/15 01:17:06;;;;;;;15.40;1.90;;;5.70;99.90;;;;;;6277810;22;20038;-92
2023/01/15 01:19:32;;;;;;;13.80;1.60;;;7.10;99.90;;;;;;6251944;22;20018;-90
2023/01/15 01:21:58;;;;;;;13.70;1.55;;;7.10;99.90;;;;;;6278007;22;20122;-91
2023/01/15 01:24:32;;;;;;;12.15;1.60;;;5.60;99.90;;;;;;6251628;22;20090;-89
2023/01/15 01:27:10;;;;;;;16.02;1.55;;;6.40;99.90;;;;;;6277536;22;20054;-93
2023/01/15 01:29:36;;;;;;;12.57;1.95;;;6.30;99.90;;;;;;6251801;22;20022;-87
2023/01/15 01:32:07;;;;;;;12.95;2.17;;;7.10;99.90;;;;;;6304477;22;20019;-89
2023/01/15 01:34:35;;;;;;;8.15;1.35;;;6.10;99.90;;;;;;6277479;22;20019;-90
2023/01/15 01:37:17;;;;;;;15.00;1.48;;;7.20;99.90;;;;;;6304620;22;20091;-90
2023/01/15 01:39:55;;;;;;;15.32;2.17;;;7.10;99.90;;;;;;6277629;22;20077;-92
2023/01/15 01:42:30;;;;;;;8.18;1.42;;;6.10;99.90;;;;;;6251443;22;20016;-87
2023/01/15 01:45:13;;;;;;;10.80;1.55;;;7.20;99.90;;;;;;6277376;22;20343;-87
2023/01/15 01:47:41;;;;;;;15.95;1.48;;;6.10;99.90;;;;;;6277047;22;20019;-90
2023/01/15 01:50:13;;;;;;;18.38;2.17;;;6.40;99.90;;;;;;6277586;22;20018;-90
2023/01/15 01:52:45;;;;;;;15.80;1.95;;;7.20;99.90;;;;;;6304500;22;20041;-90
2023/01/15 01:55:13;;;;;;;10.05;1.67;;;6.00;99.90;;;;;;6277434;22;20084;-88
2023/01/15 01:57:39;;;;;;;17.73;2.08;;;7.10;99.90;;;;;;6250973;22;20015;-90
2023/01/15 02:00:15;;;;;;;16.45;2.15;;;6.80;99.90;;;;;;6277580;22;20019;-91
2023/01/15 02:03:07;;;;;;;17.73;1.77;;;6.50;99.90;;;;;;6277480;22;20015;-88
2023/01/15 02:05:37;;;;;;;14.98;1.60;;;6.10;99.90;;;;;;6274919;22;20023;-88
2023/01/15 02:08:10;;;;;;;9.25;1.67;;;7.20;99.90;;;;;;6276928;22;20021;-89
2023/01/15 02:10:40;;;;;;;10.82;1.48;;;5.70;99.90;;;;;;6276907;22;20019;-88
2023/01/15 02:13:41;;;;;;;10.57;1.73;;;5.20;99.90;;;;;;6275857;22;20022;-88
2023/01/15 02:16:33;;;;;;;10.48;1.40;;;6.10;99.90;;;;;;6276563;22;20378;-90
2023/01/15 02:19:09;;;;;;;16.02;1.95;;;5.20;99.90;;;;;;6277165;22;20019;-91
2023/01/15 02:22:02;;;;;;;10.25;1.30;;;6.10;99.90;;;;;;6276447;22;20019;-88
2023/01/15 02:25:07;;;;;;;13.80;1.77;;;6.00;99.90;;;;;;6250896;22;20091;-89
2023/01/15 02:27:43;;;;;;;17.67;1.75;;;6.00;99.90;;;;;;6276110;22;20023;-88
2023/01/15 02:30:17;;;;;;;12.90;2.20;;;6.00;99.90;;;;;;6304006;22;20104;-89
2023/01/15 02:33:05;;;;;;;11.30;2.10;;;6.00;99.90;;;;;;6301501;22;20030;-89
2023/01/15 02:35:40;;;;;;;10.10;1.45;;;6.00;99.90;;;;;;6276129;22;20241;-89
2023/01/15 02:38:07;;;;;;;;;;;5.10;99.90;;;;;;6250653;22;20030;-89
2023/01/15 02:40:34;;;;;;;13.23;1.70;;;7.00;99.90;;;;;;6304047;22;19925;-89
2023/01/15 02:43:00;;;;;;;16.60;2.30;;;7.10;99.90;;;;;;6251138;22;20348;-87
2023/01/15 02:45:32;;;;;;;14.77;2.65;;;6.60;99.90;;;;;;6251064;22;20026;-89
2023/01/15 02:48:07;;;;;;;15.75;1.60;;;6.10;99.90;;;;;;6275029;22;20051;-89
2023/01/15 02:50:38;;;;;;;10.68;1.80;;;7.00;99.90;;;;;;6276445;22;20444;-87
2023/01/15 02:53:32;;;;;;;9.48;2.15;;;6.00;99.90;;;;;;6250942;22;20015;-90
2023/01/15 02:56:08;;;;;;;15.50;2.45;;;6.30;99.90;;;;;;6276042;22;20019;-90
2023/01/15 02:58:41;;;;;;;12.82;2.05;;;6.30;99.90;;;;;;6276320;22;20069;-91
2023/01/15 03:01:18;;;;;;;14.10;1.65;;;7.00;99.90;;;;;;6250846;22;20076;-90
2023/01/15 03:04:17;;;;;;;11.23;1.73;;;5.80;99.90;;;;;;6250973;22;20098;-88
2023/01/15 03:06:51;;;;;;;16.52;2.15;;;6.00;99.90;;;;;;6250774;22;20019;-87
2023/01/15 03:09:22;;;;;;;15.57;2.05;;;7.10;99.90;;;;;;6250628;22;20023;-93
2023/01/15 03:12:11;;;;;;;14.80;2.00;;;5.20;99.90;;;;;;6252591;22;20034;-88
2023/01/15 03:15:04;;;;;;;14.38;1.70;;;6.00;99.90;;;;;;6276477;22;20478;-89
2023/01/15 03:17:51;;;;;;;13.40;2.08;;;6.00;99.90;;;;;;6276289;22;20027;-89
2023/01/15 03:20:32;;;;;;;19.38;1.80;;;7.30;99.90;;;;;;6276863;22;20439;-86
2023/01/15 03:23:09;;;;;;;15.88;2.17;;;7.30;99.90;;;;;;6303874;22;20021;-89
2023/01/15 03:25:55;;;;;;;16.73;1.80;;;5.50;99.90;;;;;;6275562;22;20069;-88
2023/01/15 03:28:33;;;;;;;15.23;1.48;;;6.90;99.90;;;;;;6275301;22;20027;-91
2023/01/15 03:31:02;;;;;;;12.95;1.63;;;7.10;99.90;;;;;;6275841;22;20047;-90
2023/01/15 03:33:28;;;;;;;16.35;1.63;;;7.10;99.90;;;;;;6275582;22;20016;-88
2023/01/15 03:35:57;;;;;;;15.52;1.42;;;7.40;99.90;;;;;;6275371;22;20019;-88
2023/01/15 03:38:35;;;;;;;12.82;1.60;;;5.20;99.90;;;;;;6251068;22;20041;-87
2023/01/15 03:41:44;;;;;;;17.30;1.90;;;7.20;99.90;;;;;;6276141;22;20023;-88
2023/01/15 03:44:38;;;;;;;16.42;1.85;;;5.70;99.90;;;;;;6188118;23;20052;-90
2023/01/15 03:47:18;;;;;;;16.17;1.67;;;5.50;99.90;;;;;;6213406;23;20519;-88
2023/01/15 03:49:54;;;;;;;12.00;2.08;;;7.40;99.90;;;;;;6188587;23;20023;-87
2023/01/15 03:52:48;;;;;;;14.48;1.58;;;6.10;99.90;;;;;;6239159;23;20055;-87
2023/01/15 03:55:16;;;;;;;13.60;1.33;;;7.40;99.90;;;;;;6153059;23;20017;-87
2023/01/15 03:58:03;;;;;;;17.65;1.52;;;6.90;99.90;;;;;;6130748;23;20140;-90
2023/01/15 04:00:43;;;;;;;12.18;1.40;;;6.00;99.90;;;;;;6180432;23;20021;-89
2023/01/15 04:03:14;;;;;;;11.52;2.13;;;6.30;99.90;;;;;;6154697;23;20107;-89
2023/01/15 04:05:42;;;;;;;14.85;2.63;;;6.90;99.90;;;;;;6154561;23;20458;-87
2023/01/15 04:08:11;;;;;;;13.68;1.98;;;6.00;99.90;;;;;;6154623;23;20025;-89
2023/01/15 04:10:37;;;;;;;13.32;1.48;;;7.00;99.90;;;;;;6154808;23;20021;-92
2023/01/15 04:13:05;;;;;;;18.83;2.05;;;5.90;99.90;;;;;;6154444;23;20492;-88
2023/01/15 04:15:31;;;;;;;12.55;2.22;;;7.10;99.90;;;;;;6154896;23;20033;-88
2023/01/15 04:18:00;;;;;;;13.45;2.20;;;7.10;99.90;;;;;;6154625;23;20025;-91
2023/01/15 04:20:34;;;;;;;13.02;1.40;;;6.10;99.90;;;;;;6191641;23;20063;-88
2023/01/15 04:22:59;;;;;;;14.70;2.13;;;7.20;99.90;;;;;;6215154;23;20046;-87
2023/01/15 04:25:25;;;;;;;18.17;2.20;;;7.10;99.90;;;;;;6240012;23;20035;-88
2023/01/15 04:27:53;;;;;;;13.18;1.73;;;7.10;99.90;;;;;;6214869;23;20104;-88
2023/01/15 04:30:19;;;;;;;11.93;1.73;;;6.10;99.90;;;;;;6239851;23;20592;-89
2023/01/15 04:32:51;;;;;;;17.98;2.47;;;5.80;99.90;;;;;;6257833;22;20023;-89
2023/01/15 04:35:18;;;;;;;19.38;2.65;;;5.00;99.90;;;;;;6251515;22;20077;-90
2023/01/15 04:37:53;;;;;;;9.15;1.50;;;6.90;99.90;;;;;;6304604;22;20058;-93
2023/01/15 04:45:49;;;;;;;17.52;2.00;;;5.70;99.90;;;;;;6277588;22;20026;-90
2023/01/15 04:48:21;;;;;;;8.95;1.50;;;6.90;99.90;;;;;;6305158;22;20054;-89
2023/01/15 04:50:47;;;;;;;8.95;1.30;;;6.50;99.90;;;;;;6277621;22;20444;-89
2023/01/15 04:53:13;;;;;;;14.75;1.33;;;6.70;99.90;;;;;;6251096;22;20086;-88
2023/01/15 04:55:45;;;;;;;10.35;1.73;;;7.10;99.90;;;;;;6277612;22;20015;-92
2023/01/15 04:58:14;;;;;;;10.32;2.10;;;6.90;99.90;;;;;;6252267;22;20432;-90
2023/01/15 05:00:41;;;;;;;23.77;1.95;;;6.70;99.90;;;;;;6251445;22;20015;-90
2023/01/15 05:03:16;;;;;;;14.13;1.80;;;5.80;99.90;;;;;;6276792;22;20023;-88
2023/01/15 05:05:42;;;;;;;15.85;2.03;;;6.70;99.90;;;;;;6276918;22;20023;-90
2023/01/15 05:08:08;;;;;;;13.45;1.25;;;6.80;99.90;;;;;;6276776;22;20344;-89
2023/01/15 05:10:33;;;;;;;11.25;2.17;;;5.50;99.90;;;;;;6277093;22;20058;-89
2023/01/15 05:12:59;;;;;;;12.30;2.25;;;6.30;99.90;;;;;;6304695;22;20128;-88
2023/01/15 05:15:27;;;;;;;18.58;1.90;;;6.80;99.90;;;;;;6304523;22;20023;-88
2023/01/15 05:17:53;;;;;;;15.55;1.88;;;5.70;99.90;;;;;;6251435;22;20427;-89
2023/01/15 05:20:19;;;;;;;17.27;2.35;;;6.50;99.90;;;;;;6277110;22;20019;-89
2023/01/15 05:22:47;;;;;;;12.25;1.92;;;6.80;99.90;;;;;;6276973;22;20090;-88
2023/01/15 05:25:16;;;;;;;22.33;2.05;;;6.60;99.90;;;;;;6277304;22;20019;-92
2023/01/15 05:27:42;;;;;;;19.08;1.50;;;5.00;99.90;;;;;;6251545;22;20112;-87
2023/01/15 05:30:09;;;;;;;17.50;1.95;;;6.70;99.90;;;;;;6251612;22;20027;-90
2023/01/15 05:32:34;;;;;;;10.55;1.63;;;5.40;99.90;;;;;;6277229;22;20047;-88
2023/01/15 05:35:00;;;;;;;16.15;1.80;;;6.80;99.90;;;;;;6277401;22;20026;-92
2023/01/15 05:37:29;;;;;;;9.65;1.38;;;6.70;99.90;;;;;;6251573;22;20069;-88
2023/01/15 05:39:55;;;;;;;7.32;1.95;;;6.60;99.90;;;;;;6277138;22;20757;-87
2023/01/15 05:42:20;;;;;;;16.98;2.13;;;6.70;99.90;;;;;;6276531;22;20030;-87
2023/01/15 05:44:46;;;;;;;12.05;1.45;;;6.70;99.90;;;;;;6276606;22;20051;-94
2023/01/15 05:47:13;;;;;;;17.02;2.50;;;6.50;99.90;;;;;;6277174;22;20015;-89
2023/01/15 05:49:39;;;;;;;11.15;1.63;;;6.50;99.90;;;;;;6277742;22;20444;-90
2023/01/15 05:52:04;;;;;;;9.48;1.90;;;6.50;99.90;;;;;;6277184;22;20022;-90
2023/01/15 05:54:33;;;;;;;16.05;1.98;;;6.20;99.90;;;;;;6277161;22;20015;-89
2023/01/15 05:57:02;;;;;;;15.20;2.95;;;6.00;99.90;;;;;;6252060;22;20023;-88
2023/01/15 05:59:29;;;;;;;11.52;1.67;;;4.80;99.90;;;;;;6304459;22;20356;-90
2023/01/15 06:01:56;;;;;;;15.82;1.25;;;6.60;99.90;;;;;;6251303;22;20053;-86
2023/01/15 06:04:23;;;;;;;10.55;1.42;;;6.40;99.90;;;;;;6250713;22;20029;-87
2023/01/15 06:06:53;;;;;;;10.43;1.40;;;6.70;99.90;;;;;;6276296;22;20019;-88
2023/01/15 06:09:21;;;;;;;9.90;1.13;;;6.40;99.90;;;;;;6301862;22;20015;-88
2023/01/15 06:11:48;;;;;;;4.90;1.05;;;5.90;99.90;;;;;;6251095;22;20373;-90
2023/01/15 06:14:14;;;;;;;11.23;1.40;;;6.00;99.90;;;;;;6276231;22;20034;-89
2023/01/15 06:16:40;;;;;;;13.60;1.55;;;6.30;99.90;;;;;;6276115;22;20026;-88
2023/01/15 06:19:07;;;;;;;14.55;1.88;;;6.60;99.90;;;;;;6250055;22;20016;-88
2023/01/15 06:21:34;;;;;;;14.05;2.72;;;5.60;99.90;;;;;;6303682;22;20025;-86
2023/01/15 06:24:02;;;;;;;12.07;1.33;;;6.20;99.90;;;;;;6276583;22;20022;-88
2023/01/15 06:26:28;;;;;;;10.32;1.80;;;6.30;99.90;;;;;;6304547;22;20020;-87
2023/01/15 06:28:57;;;;;;;11.48;1.20;;;5.30;99.90;;;;;;6276164;22;20019;-91
2023/01/15 06:31:23;;;;;;;20.17;1.60;;;6.30;99.90;;;;;;6250088;22;20233;-89
2023/01/15 06:34:08;;;;;;;11.27;1.50;;;5.70;99.90;;;;;;6250611;22;20018;-88
2023/01/15 06:36:54;;;;;;;8.10;1.60;;;5.20;99.90;;;;;;6297636;22;20015;-87
2023/01/15 06:39:26;;;;;;;16.65;1.55;;;5.10;99.90;;;;;;6276099;22;20411;-85
2023/01/15 06:47:49;;;;;;;15.10;1.58;;;5.20;99.90;;;;;;6275666;22;20023;-87
2023/01/15 06:50:15;;;;;;;10.93;1.33;;;6.10;99.90;;;;;;6275745;22;20013;-90
2023/01/15 06:52:40;;;;;;;8.48;1.67;;;5.20;99.90;;;;;;6250315;22;20019;-90
2023/01/15 06:55:07;;;;;;;12.95;1.63;;;6.50;99.90;;;;;;6276085;22;20065;-89
2023/01/15 06:57:32;;;;;;;15.80;1.90;;;5.10;99.90;;;;;;6276063;22;20041;-91
2023/01/15 06:59:58;;;;;;;6.43;0.98;;;6.40;99.90;;;;;;6303066;22;20015;-89
2023/01/15 07:02:26;;;;;;;9.48;0.90;;;6.50;99.90;;;;;;6275449;22;20022;-90
2023/01/15 07:04:52;;;;;;;12.65;1.67;;;5.10;99.90;;;;;;6303260;22;20382;-88
2023/01/15 07:07:22;;;;;;;9.93;1.38;;;5.70;99.90;;;;;;6303432;22;20137;-86
2023/01/15 07:09:48;;;;;;;11.30;1.65;;;5.10;99.90;;;;;;6275803;22;20023;-86
2023/01/15 07:12:14;;;;;;;19.15;1.75;;;5.90;99.90;;;;;;6303198;22;20122;-88
2023/01/15 07:14:39;;;;;;;15.32;1.80;;;6.30;99.90;;;;;;6302849;22;20026;-86
2023/01/15 07:17:05;;;;;;;13.15;2.05;;;4.90;99.90;;;;;;6303454;22;20020;-87
2023/01/15 07:19:31;;;;;;;12.20;1.52;;;5.10;99.90;;;;;;6303600;22;20014;-85
2023/01/15 07:21:57;;;;;;;11.57;1.65;;;5.10;99.90;;;;;;6275716;22;20458;-87
2023/01/15 07:24:22;;;;;;;8.32;1.20;;;6.10;99.90;;;;;;6250441;22;20343;-89
2023/01/15 07:26:48;;;;;;;8.32;1.00;;;6.20;99.90;;;;;;6276320;22;20038;-87
2023/01/15 07:29:14;;;;;;;8.52;1.40;;;6.10;99.90;;;;;;6275803;22;20317;-89
2023/01/15 07:31:40;;;;;;;15.00;1.58;;;5.20;99.90;;;;;;6304285;22;20026;-85
2023/01/15 07:34:09;;;;;;;11.38;1.20;;;6.40;99.90;;;;;;6278162;22;20015;-90
2023/01/15 07:36:35;;;;;;;10.18;1.08;;;6.20;99.90;;;;;;6277612;22;20058;-89
2023/01/15 07:39:07;;;;;;;7.00;1.30;;;6.20;99.90;;;;;;6252830;22;20027;-87
2023/01/15 07:50:04;;;;;;;10.23;1.20;;;5.00;99.90;;;;;;6185215;23;20074;-88
2023/01/15 07:52:32;;;;;;;8.93;1.13;;;5.10;99.90;;;;;;6185426;23;20024;-88
2023/01/15 07:54:59;;;;;;;6.60;1.40;;;6.00;99.90;;;;;;6210401;23;20392;-86
2023/01/15 07:57:25;;;;;;;3.17;1.00;;;5.50;99.90;;;;;;6210228;23;20021;-86
2023/01/15 07:59:51;;;;;;;13.25;1.92;;;6.30;99.90;;;;;;6185306;23;20020;-88
2023/01/15 08:02:17;;;;;;;12.07;1.73;;;6.10;99.90;;;;;;6210090;23;20152;-91
2023/01/15 08:04:43;;;;;;;10.45;2.10;;;4.40;99.90;;;;;;6160382;23;20550;-86
2023/01/15 08:07:09;;;;;;;13.05;1.60;;;5.30;99.90;;;;;;6184827;23;20078;-87
2023/01/15 08:09:35;;;;;;;11.50;1.63;;;5.90;99.90;;;;;;6184992;23;20182;-88
2023/01/15 08:17:35;;;;;;;11.88;1.73;;;5.30;99.90;;;;;;6209450;23;20032;-85
2023/01/15 08:20:02;;;;;;;12.18;1.50;;;5.90;99.90;;;;;;6253183;22;20051;-89
2023/01/15 08:22:31;;;;;;;14.48;2.00;;;6.40;99.90;;;;;;6276927;22;20026;-86
2023/01/15 08:24:57;;;;;;;11.32;1.42;;;6.40;99.90;;;;;;6277414;22;20019;-86
2023/01/15 08:27:23;;;;;;;13.70;2.00;;;6.20;99.90;;;;;;6251963;22;20442;-86
2023/01/15 08:29:49;;;;;;;12.93;1.38;;;6.40;99.90;;;;;;6277341;22;20517;-89
2023/01/15 08:32:14;;;;;;;15.38;1.40;;;5.30;99.90;;;;;;6276740;22;20023;-90
2023/01/15 08:34:40;;;;;;;8.68;1.50;;;6.50;99.90;;;;;;6277126;22;20109;-87
2023/01/15 08:37:06;;;;;;;11.43;1.55;;;5.60;99.90;;;;;;6303043;22;20023;-86
2023/01/15 08:39:31;;;;;;;9.90;1.38;;;6.60;99.90;;;;;;6276959;22;20026;-93
2023/01/15 08:41:58;;;;;;;9.23;1.42;;;6.40;99.90;;;;;;6276763;22;20089;-87
2023/01/15 08:44:24;;;;;;;12.27;1.45;;;5.30;99.90;;;;;;6276871;22;20046;-86
2023/01/15 08:46:51;;;;;;;6.75;1.00;;;6.40;99.90;;;;;;6276477;22;20019;-87
2023/01/15 08:49:17;;;;;;;5.68;1.08;;;5.90;99.90;;;;;;6277512;22;20436;-86
2023/01/15 08:51:44;;;;;;;13.98;1.60;;;6.40;99.90;;;;;;6276958;22;20023;-85
2023/01/15 08:54:11;;;;;;;10.10;1.30;;;5.70;99.90;;;;;;6304739;22;20043;-86
2023/01/15 08:56:37;;;;;;;11.20;1.08;;;6.60;99.90;;;;;;6277011;22;20018;-88
2023/01/15 08:59:04;;;;;;;11.20;1.70;;;5.90;99.90;;;;;;6305069;22;20023;-86
2023/01/15 09:01:30;;;;;;;16.00;1.75;;;5.20;99.90;;;;;;6277530;22;20030;-88
2023/01/15 09:03:57;;;;;;;10.05;1.20;;;6.20;99.90;;;;;;6304703;22;20015;-86
2023/01/15 09:06:22;;;;;;;9.73;2.20;;;5.10;99.90;;;;;;6302612;22;20019;-85
2023/01/15 09:08:48;;;;;;;7.22;1.00;;;6.10;99.90;;;;;;6277357;22;20075;-86
2023/01/15 09:11:14;;;;;;;8.02;1.13;;;5.20;99.90;;;;;;6304436;22;20019;-87
2023/01/15 09:13:39;;;;;;;10.73;1.67;;;5.80;99.90;;;;;;6304445;22;20019;-87
2023/01/15 09:16:06;;;;;;;7.72;1.13;;;5.10;99.90;;;;;;6277222;22;20073;-84
2023/01/15 09:18:32;;;;;;;5.93;1.48;;;5.30;99.90;;;;;;6304381;22;20019;-86
2023/01/15 09:20:58;;;;;;;8.25;1.75;;;5.30;99.90;;;;;;6304531;22;20827;-86
2023/01/15 09:23:24;;;;;;;11.50;1.17;;;5.20;99.90;;;;;;6304584;22;20026;-87
2023/01/15 09:25:54;;;;;;;10.25;1.15;;;5.40;99.90;;;;;;6304222;22;20015;-86
2023/01/15 09:28:20;;;;;;;11.20;1.65;;;6.60;99.90;;;;;;6276465;22;20560;-86
2023/01/15 09:30:46;;;;;;;7.95;1.60;;;4.60;99.90;;;;;;6304195;22;20015;-87
2023/01/15 09:33:12;;;;;;;10.55;1.85;;;6.70;99.90;;;;;;6303930;22;20015;-85
2023/01/15 09:35:44;;;;;;;9.75;1.52;;;6.40;99.90;;;;;;6276508;22;20072;-86
2023/01/15 09:38:20;;;;;;;13.00;1.40;;;5.70;99.90;;;;;;6276691;22;20752;-86
2023/01/15 09:40:59;;;;;;;6.80;1.02;;;6.80;99.90;;;;;;6303370;22;20018;-85
2023/01/15 09:43:52;;;;;;;13.48;2.47;;;5.70;99.90;;;;;;6250361;22;20059;-86
2023/01/15 09:46:24;;;;;;;15.07;1.63;;;5.80;99.90;;;;;;6303974;22;20011;-88
2023/01/15 09:49:47;;;;;;;9.95;1.48;;;5.10;99.90;;;;;;6303687;22;20745;-85
2023/01/15 09:52:31;;;;;;;9.77;1.50;;;5.80;99.90;;;;;;6239677;23;20055;-87
2023/01/15 09:55:16;;;;;;;5.88;1.10;;;5.80;99.90;;;;;;6239742;23;20020;-86
2023/01/15 09:57:45;;;;;;;12.55;1.65;;;5.90;99.90;;;;;;6213924;23;20508;-86
2023/01/15 10:00:19;;;;;;;20.70;1.55;;;7.10;99.90;;;;;;6240068;23;20024;-85
2023/01/15 10:03:04;;;;;;;12.27;1.42;;;6.10;99.90;;;;;;6239491;23;20651;-86
2023/01/15 10:05:37;;;;;;;5.55;1.50;;;7.30;99.90;;;;;;6239730;23;20089;-87
2023/01/15 10:08:20;;;;;;;7.65;1.20;;;6.20;99.90;;;;;;6213390;23;20030;-86
2023/01/15 10:10:52;;;;;;;11.82;1.40;;;6.30;99.90;;;;;;6238955;23;20070;-87
2023/01/15 10:13:58;;;;;;;6.80;0.77;;;7.30;99.90;;;;;;6238450;23;20550;-86
2023/01/15 10:16:28;;;;;;;7.60;1.30;;;6.60;99.90;;;;;;6178476;23;20052;-86
2023/01/15 10:18:57;;;;;;;10.32;1.02;;;6.70;99.90;;;;;;6153569;23;20059;-86
2023/01/15 10:21:55;;;;;;;8.00;1.30;;;7.80;99.90;;;;;;6153138;23;20020;-86
2023/01/15 10:24:32;;;;;;;10.70;1.02;;;6.90;99.90;;;;;;6178251;23;20027;-86
2023/01/15 10:26:59;;;;;;;5.28;1.17;;;7.00;99.90;;;;;;6211426;23;20016;-87
2023/01/15 10:29:42;;;;;;;10.90;1.05;;;7.50;99.90;;;;;;6213546;23;20082;-85
2023/01/15 10:32:49;;;;;;;5.85;1.10;;;7.10;99.90;;;;;;6238089;23;20070;-86
2023/01/15 10:35:44;;;;;;;7.65;1.38;;;7.10;99.90;;;;;;6148768;23;20140;-89
2023/01/15 10:38:31;;;;;;;8.40;1.50;;;7.00;99.90;;;;;;6148102;23;20021;-85
2023/01/15 10:41:07;;;;;;;7.65;1.60;;;7.10;99.90;;;;;;6124126;23;20362;-85
2023/01/15 10:43:45;;;;;;;4.70;0.90;;;7.50;99.90;;;;;;6148911;23;20021;-88
2023/01/15 10:46:17;;;;;;;6.00;1.40;;;8.20;99.90;;;;;;6148872;23;20447;-85
2023/01/15 10:48:50;;;;;;;8.82;1.40;;;7.10;99.90;;;;;;6148690;23;20117;-86
2023/01/15 10:51:22;;;;;;;10.20;1.55;;;8.00;99.90;;;;;;6163738;23;20021;-86
2023/01/15 10:53:55;;;;;;;9.57;1.27;;;8.50;99.90;;;;;;6208565;23;20107;-88
2023/01/15 10:56:39;;;;;;;6.38;1.30;;;7.10;99.90;;;;;;6208637;23;20016;-88
2023/01/15 10:59:16;;;;;;;10.45;1.83;;;8.20;99.90;;;;;;6208833;23;20103;-86
2023/01/15 11:01:42;;;;;;;12.63;2.00;;;7.20;99.90;;;;;;6183328;23;20028;-88
2023/01/15 11:04:12;;;;;;;10.98;1.77;;;7.90;99.90;;;;;;6183664;23;20035;-82
2023/01/15 11:06:38;;;;;;;13.50;1.30;;;7.80;99.90;;;;;;6183239;23;20060;-87
2023/01/15 11:09:05;;;;;;;9.13;1.90;;;8.40;99.90;;;;;;6208318;23;20032;-86
2023/01/15 11:20:29;;;;;;;10.18;1.83;;;7.50;99.90;;;;;;6275697;22;20116;-89
2023/01/15 11:22:56;;;;;;;17.10;1.65;;;7.50;99.90;;;;;;6250136;22;20066;-87
2023/01/15 11:25:31;;;;;;;8.57;2.03;;;8.50;99.90;;;;;;6303671;22;20064;-86
2023/01/15 11:28:04;;;;;;;8.68;1.83;;;8.60;99.90;;;;;;6275764;22;20383;-92
2023/01/15 11:30:38;;;;;;;4.50;1.13;;;7.30;99.90;;;;;;6275899;22;20022;-90
2023/01/15 11:33:26;;;;;;;15.48;1.85;;;7.30;99.90;;;;;;6251004;22;20019;-88
2023/01/15 11:35:58;;;;;;;9.05;1.60;;;7.80;99.90;;;;;;6275191;22;20436;-90
2023/01/15 11:38:26;;;;;;;12.45;2.60;;;7.80;99.90;;;;;;6251814;22;20015;-89
2023/01/15 11:41:01;;;;;;;12.82;1.40;;;7.10;99.90;;;;;;6276188;22;20083;-88
2023/01/15 11:52:08;;;;;;;14.18;2.17;;;7.30;99.90;;;;;;6275816;22;20106;-87
2023/01/15 11:54:38;;;;;;;10.38;1.42;;;7.00;99.90;;;;;;6250219;22;20023;-86
2023/01/15 11:57:05;;;;;;;12.00;1.90;;;8.10;99.90;;;;;;6302902;22;20034;-89
2023/01/15 11:59:31;;;;;;;13.32;2.28;;;8.10;99.90;;;;;;6275829;22;20022;-86
2023/01/15 12:02:15;;;;;;;11.05;1.73;;;7.00;99.90;;;;;;6276013;22;20444;-85
2023/01/15 12:04:57;;;;;;;16.70;2.55;;;7.00;99.90;;;;;;6275720;22;20023;-84
2023/01/15 12:07:27;;;;;;;13.00;1.88;;;8.20;99.90;;;;;;6303934;22;20030;-86
2023/01/15 12:10:13;;;;;;;8.68;1.45;;;7.00;99.90;;;;;;6303712;22;20020;-88
2023/01/15 12:12:54;;;;;;;20.85;2.47;;;7.80;99.90;;;;;;6276011;22;20023;-86
2023/01/15 12:15:50;;;;;;;12.32;1.50;;;6.90;99.90;;;;;;6301441;22;20015;-88
2023/01/15 12:18:50;;;;;;;7.82;1.60;;;6.90;99.90;;;;;;6303360;22;20015;-84
2023/01/15 12:21:56;;;;;;;14.95;2.40;;;6.90;99.90;;;;;;6305344;22;20042;-86
2023/01/15 12:24:55;;;;;;;11.68;1.67;;;6.80;99.90;;;;;;6277424;22;20015;-84
2023/01/15 12:27:51;;;;;;;13.35;1.75;;;6.80;99.90;;;;;;6305092;22;20090;-87
2023/01/15 12:30:34;;;;;;;10.60;2.20;;;6.80;99.90;;;;;;6304985;22;20015;-87
2023/01/15 12:33:12;;;;;;;14.32;1.92;;;6.70;99.90;;;;;;6277123;22;20353;-85
2023/01/15 12:35:47;;;;;;;9.65;1.85;;;6.60;99.90;;;;;;6277236;22;20023;-85
2023/01/15 12:38:34;;;;;;;11.20;1.92;;;6.50;99.90;;;;;;6277302;22;20415;-85
2023/01/15 12:41:09;;;;;;;10.60;1.30;;;6.40;99.90;;;;;;6305315;22;20069;-88
2023/01/15 12:46:55;;;;;;;13.95;2.53;;;5.60;99.90;;;;;;6305579;22;20053;-91
2023/01/15 12:49:53;;;;;;;9.57;1.50;;;5.50;99.90;;;;;;6305077;22;20015;-88
2023/01/15 12:52:42;;;;;;;12.55;1.65;;;6.70;99.90;;;;;;6252808;22;20022;-91
2023/01/15 12:55:35;;;;;;;12.52;1.63;;;5.30;99.90;;;;;;6304676;22;20439;-88
2023/01/15 12:58:51;;;;;;;3.85;0.70;;;6.50;99.90;;;;;;6218530;23;20349;-93
2023/01/15 13:02:01;;;;;;;10.68;1.50;;;6.30;99.90;;;;;;6123233;23;20392;-91
2023/01/15 13:05:18;;;;;;;9.50;1.20;;;5.10;99.90;;;;;;5988115;23;20026;-93
2023/01/15 13:08:40;;;;;;;6.80;1.13;;;5.10;99.90;;;;;;6007301;23;20103;-90
2023/01/15 13:11:13;;;;;;;1.77;0.50;;;5.30;99.90;;;;;;5846799;24;20554;-90
2023/01/15 13:17:56;;;;;;;5.55;0.70;;;5.10;99.90;;;;;;5842690;24;20033;-90
2023/01/15 13:21:12;;;;;;;2.88;0.75;;;5.10;99.90;;;;;;5765090;24;20032;-90
2023/01/15 13:24:14;;;;;;;2.42;0.50;;;6.30;99.90;;;;;;5722721;24;20110;-87
2023/01/15 13:28:03;;;;;;;3.20;0.60;;;4.60;99.90;;;;;;5764450;24;20067;-92
2023/01/15 13:30:53;;;;;;;7.53;0.80;;;4.90;99.90;;;;;;5717211;24;20095;-90
2023/01/15 13:34:17;;;;;;;4.93;0.77;;;4.80;99.90;;;;;;5767854;24;20019;-92
2023/01/15 13:36:57;;;;;;;3.47;0.68;;;6.50;99.90;;;;;;5790736;24;20029;-89
2023/01/15 13:39:48;;;;;;;5.35;0.93;;;5.20;99.90;;;;;;5794422;24;20448;-93
2023/01/15 13:43:04;;;;;;;6.93;1.15;;;5.70;99.90;;;;;;5800085;24;20014;-92
2023/01/15 13:46:19;;;;;;;7.78;1.38;;;6.30;99.90;;;;;;5866125;24;20022;-94
2023/01/15 13:49:23;;;;;;;4.88;0.80;;;5.30;99.90;;;;;;5791261;24;20052;-87
2023/01/15 13:52:07;;;;;;;;;;;;;;;;;;;;;
2023/01/15 13:54:48;;;;;;;6.05;0.90;;;5.30;99.90;;;;;;5821173;24;20066;-91
2023/01/15 13:57:54;;;;;;;7.43;1.02;;;5.30;99.90;;;;;;5865439;24;20017;-94
2023/01/15 14:00:47;;;;;;;9.10;1.52;;;5.40;99.90;;;;;;5848739;24;20025;-88
2023/01/15 14:04:11;;;;;;;9.20;0.98;;;6.30;99.90;;;;;;5847597;24;20409;-91
2023/01/15 14:10:52;;;;;;;;;;;;;;;;;;;;;
2023/01/15 14:14:26;;;;;;;9.02;1.45;;;6.30;99.90;;;;;;6013375;23;20342;-91
2023/01/15 14:17:36;;;;;;;10.65;1.25;;;5.20;99.90;;;;;;5961384;23;20093;-95
2023/01/15 14:21:26;;;;;;;8.25;1.30;;;5.50;99.90;;;;;;5980135;23;20458;-90
2023/01/15 14:24:44;;;;;;;8.95;1.20;;;5.50;99.90;;;;;;6006534;23;20094;-92
2023/01/15 14:27:50;;;;;;;7.40;1.02;;;6.00;99.90;;;;;;5981773;24;20024;-94
2023/01/15 14:34:55;;;;;;;14.57;1.13;;;5.60;99.90;;;;;;5859161;24;20051;-93
2023/01/15 14:37:38;;;;;;;6.65;1.45;;;5.70;99.90;;;;;;5858198;24;20030;-90
2023/01/15 14:40:24;;;;;;;7.50;1.80;;;6.60;99.90;;;;;;5866391;24;20423;-88
2023/01/15 14:43:03;;;;;;;8.85;1.50;;;5.60;99.90;;;;;;5845112;24;20518;-90